createdAt,value
2018-08-24T00:01:35.435Z,0.80
2018-08-24T00:04:08.174Z,0.70
2018-08-24T00:06:37.657Z,0.40
2018-08-24T00:09:16.552Z,1.30
2018-08-24T00:11:44.994Z,0.87
2018-08-24T00:14:13.499Z,1.30
2018-08-24T00:16:42.548Z,0.63
2018-08-24T00:19:12.284Z,0.30
2018-08-24T00:21:40.725Z,0.80
2018-08-24T00:24:09.997Z,1.10
2018-08-24T00:26:38.449Z,0.70
2018-08-24T00:29:07.338Z,1.13
2018-08-24T00:31:36.583Z,0.87
2018-08-24T00:34:05.161Z,0.60
2018-08-24T00:36:33.655Z,0.97
2018-08-24T00:39:02.155Z,1.20
2018-08-24T00:41:30.606Z,0.77
2018-08-24T00:43:59.034Z,0.83
2018-08-24T00:46:27.404Z,0.70
2018-08-24T00:48:55.729Z,0.57
2018-08-24T00:51:24.099Z,0.63
2018-08-24T00:53:52.468Z,0.97
2018-08-24T00:56:20.902Z,1.43
2018-08-24T00:58:49.278Z,0.60
2018-08-24T01:01:17.750Z,0.70
2018-08-24T01:03:46.209Z,0.70
2018-08-24T01:06:14.658Z,0.57
2018-08-24T01:08:45.038Z,1.40
2018-08-24T01:11:13.564Z,0.50
2018-08-24T01:13:41.964Z,1.00
2018-08-24T01:16:14.663Z,0.80
2018-08-24T01:18:49.120Z,0.70
2018-08-24T01:21:17.565Z,1.00
2018-08-24T01:23:46.012Z,0.70
2018-08-24T01:26:18.680Z,0.83
2018-08-24T01:28:47.304Z,0.73
2018-08-24T01:31:15.735Z,0.60
2018-08-24T01:33:44.184Z,1.13
2018-08-24T01:36:12.520Z,0.40
2018-08-24T01:38:40.875Z,0.40
2018-08-24T01:41:10.588Z,1.27
2018-08-24T01:43:38.907Z,0.70
2018-08-24T01:46:09.318Z,0.47
2018-08-24T01:48:38.154Z,0.20
2018-08-24T01:51:06.657Z,0.30
2018-08-24T01:53:35.090Z,0.40
2018-08-24T01:56:03.543Z,0.20
2018-08-24T01:58:31.989Z,0.33
2018-08-24T02:01:00.441Z,0.60
2018-08-24T02:03:28.824Z,0.20
2018-08-24T02:06:02.610Z,0.30
2018-08-24T02:08:31.004Z,0.50
2018-08-24T02:10:59.338Z,0.47
2018-08-24T02:13:32.930Z,0.40
2018-08-24T02:16:01.239Z,0.50
2018-08-24T02:18:35.510Z,0.40
2018-08-24T02:21:09.299Z,0.40
2018-08-24T02:23:37.671Z,0.30
2018-08-24T02:26:06.212Z,0.50
2018-08-24T02:28:34.520Z,0.40
2018-08-24T02:31:02.887Z,0.47
2018-08-24T02:33:35.582Z,0.23
2018-08-24T02:36:05.822Z,0.30
2018-08-24T02:38:34.373Z,0.40
2018-08-24T02:41:02.776Z,0.57
2018-08-24T02:43:31.150Z,0.30
2018-08-24T02:46:03.082Z,0.30
2018-08-24T02:48:31.495Z,0.40
2018-08-24T02:51:00.636Z,0.40
2018-08-24T02:53:28.975Z,0.30
2018-08-24T02:55:57.440Z,0.40
2018-08-24T02:58:25.798Z,0.33
2018-08-24T03:00:54.259Z,0.33
2018-08-24T03:03:23.244Z,0.23
2018-08-24T03:05:51.724Z,0.43
2018-08-24T03:08:20.081Z,0.30
2018-08-24T03:10:49.352Z,0.50
2018-08-24T03:13:17.702Z,0.50
2018-08-24T03:15:46.408Z,0.30
2018-08-24T03:18:14.959Z,0.30
2018-08-24T03:20:43.984Z,0.53
2018-08-24T03:23:12.378Z,0.30
2018-08-24T03:25:41.596Z,0.77
2018-08-24T03:28:09.913Z,0.50
2018-08-24T03:30:38.776Z,0.20
2018-08-24T03:33:07.124Z,0.50
2018-08-24T03:35:35.503Z,0.40
2018-08-24T03:38:03.893Z,0.33
2018-08-24T03:40:32.262Z,0.63
2018-08-24T03:43:00.584Z,0.30
2018-08-24T03:45:30.081Z,0.20
2018-08-24T03:47:58.475Z,0.70
2018-08-24T03:50:26.944Z,0.40
2018-08-24T03:52:55.368Z,0.20
2018-08-24T03:55:23.875Z,0.53
2018-08-24T03:57:52.334Z,0.20
2018-08-24T04:00:21.544Z,1.00
2018-08-24T04:02:51.269Z,0.40
2018-08-24T04:05:19.721Z,0.30
2018-08-24T04:07:48.174Z,0.50
2018-08-24T04:10:16.683Z,0.20
2018-08-24T04:12:45.069Z,0.30
2018-08-24T04:15:13.456Z,0.23
2018-08-24T04:17:44.817Z,0.30
2018-08-24T04:20:14.178Z,0.50
2018-08-24T04:22:42.660Z,0.50
2018-08-24T04:25:11.224Z,0.30
2018-08-24T04:27:40.524Z,0.33
2018-08-24T04:30:09.562Z,0.30
2018-08-24T04:32:37.989Z,0.37
2018-08-24T04:35:06.565Z,0.40
2018-08-24T04:37:35.531Z,0.20
2018-08-24T04:40:04.004Z,0.33
2018-08-24T04:42:32.440Z,0.40
2018-08-24T04:45:00.915Z,0.30
2018-08-24T04:47:29.346Z,0.20
2018-08-24T04:49:57.719Z,0.30
2018-08-24T04:52:26.083Z,0.40
2018-08-24T04:54:54.432Z,0.20
2018-08-24T04:57:22.767Z,0.63
2018-08-24T04:59:51.287Z,0.50
2018-08-24T05:02:19.709Z,0.70
2018-08-24T05:04:48.092Z,0.50
2018-08-24T05:07:16.412Z,0.60
2018-08-24T05:09:44.792Z,0.37
2018-08-24T05:12:13.161Z,0.60
2018-08-24T05:14:41.488Z,0.30
2018-08-24T05:17:09.955Z,0.57
2018-08-24T05:19:38.308Z,0.50
2018-08-24T05:22:06.762Z,0.60
2018-08-24T05:24:35.155Z,0.47
2018-08-24T05:27:03.647Z,0.30
2018-08-24T05:29:32.105Z,0.60
2018-08-24T05:32:00.476Z,0.60
2018-08-24T05:34:29.445Z,0.43
2018-08-24T05:36:57.783Z,0.37
2018-08-24T05:39:26.089Z,0.30
2018-08-24T05:41:54.415Z,0.40
2018-08-24T05:44:22.750Z,0.50
2018-08-24T05:46:51.090Z,0.50
2018-08-24T05:49:19.492Z,0.33
2018-08-24T05:51:47.870Z,0.50
2018-08-24T05:54:16.206Z,0.80
2018-08-24T05:56:44.644Z,0.37
2018-08-24T05:59:12.962Z,0.30
2018-08-24T06:01:41.264Z,0.47
2018-08-24T06:04:09.626Z,1.10
2018-08-24T06:06:37.958Z,0.37
2018-08-24T06:09:13.872Z,0.63
2018-08-24T06:11:42.380Z,0.50
2018-08-24T06:14:11.706Z,0.60
2018-08-24T06:16:44.339Z,0.50
2018-08-24T06:19:12.738Z,0.30
2018-08-24T06:21:41.041Z,0.57
2018-08-24T06:24:09.424Z,0.80
2018-08-24T06:26:37.775Z,0.37
2018-08-24T06:29:06.276Z,0.63
2018-08-24T06:31:34.783Z,0.60
2018-08-24T06:34:03.176Z,0.63
2018-08-24T06:36:31.536Z,1.13
2018-08-24T06:38:59.900Z,0.30
2018-08-24T06:41:28.243Z,0.60
2018-08-24T06:43:56.690Z,0.73
2018-08-24T06:46:25.148Z,0.87
2018-08-24T06:48:53.525Z,0.80
2018-08-24T06:51:21.849Z,0.60
2018-08-24T06:53:50.280Z,0.50
2018-08-24T06:56:18.716Z,0.83
2018-08-24T06:58:47.065Z,1.03
2018-08-24T07:01:15.531Z,1.17
2018-08-24T07:03:43.969Z,1.07
2018-08-24T07:06:12.352Z,1.23
2018-08-24T07:08:40.676Z,1.47
2018-08-24T07:11:09.063Z,1.17
2018-08-24T07:13:38.688Z,1.10
2018-08-24T07:16:07.049Z,0.90
2018-08-24T07:18:37.570Z,0.70
2018-08-24T07:21:05.960Z,0.83
2018-08-24T07:23:34.876Z,0.93
2018-08-24T07:26:03.211Z,1.27
2018-08-24T07:28:31.559Z,1.57
2018-08-24T07:30:59.960Z,0.70
2018-08-24T07:33:28.384Z,1.63
2018-08-24T07:35:56.735Z,1.70
2018-08-24T07:38:25.086Z,1.10
2018-08-24T07:40:53.795Z,1.67
2018-08-24T07:43:22.116Z,1.60
2018-08-24T07:45:50.518Z,1.60
2018-08-24T07:48:18.892Z,1.60
2018-08-24T07:50:47.264Z,2.07
2018-08-24T07:53:15.587Z,1.07
2018-08-24T07:55:44.550Z,3.33
2018-08-24T07:58:12.867Z,2.77
2018-08-24T08:00:41.440Z,1.70
2018-08-24T08:03:09.888Z,2.17
2018-08-24T08:05:38.298Z,2.30
2018-08-24T08:08:06.708Z,1.43
2018-08-24T08:10:39.013Z,1.20
2018-08-24T08:13:08.258Z,1.90
2018-08-24T08:15:36.731Z,0.93
2018-08-24T08:18:05.277Z,2.00
2018-08-24T08:20:33.668Z,1.40
2018-08-24T08:23:02.044Z,1.80
2018-08-24T08:25:30.412Z,1.87
2018-08-24T08:27:58.826Z,1.73
2018-08-24T08:30:27.352Z,1.70
2018-08-24T08:32:55.961Z,1.43
2018-08-24T08:35:24.280Z,1.77
2018-08-24T08:37:52.694Z,1.57
2018-08-24T08:40:21.103Z,1.43
2018-08-24T08:42:49.433Z,1.73
2018-08-24T08:45:17.839Z,1.90
2018-08-24T08:47:46.534Z,1.30
2018-08-24T08:50:14.925Z,1.60
2018-08-24T08:52:43.290Z,1.20
2018-08-24T08:55:11.697Z,1.37
2018-08-24T08:57:40.060Z,1.30
2018-08-24T09:00:08.560Z,1.53
2018-08-24T09:02:36.929Z,1.20
2018-08-24T09:05:05.468Z,1.73
2018-08-24T09:07:33.870Z,1.20
2018-08-24T09:10:02.382Z,1.10
2018-08-24T09:12:30.781Z,1.30
2018-08-24T09:14:59.156Z,1.67
2018-08-24T09:17:32.963Z,1.03
2018-08-24T09:20:06.663Z,0.90
2018-08-24T09:22:40.378Z,0.97
2018-08-24T09:25:14.205Z,0.60
2018-08-24T09:27:48.005Z,2.30
2018-08-24T09:30:16.463Z,0.83
2018-08-24T09:32:44.938Z,0.77
2018-08-24T09:35:13.219Z,1.00
2018-08-24T09:37:41.584Z,0.90
2018-08-24T09:40:09.933Z,0.80
2018-08-24T09:42:38.472Z,0.60
2018-08-24T09:45:06.920Z,0.30
2018-08-24T09:47:40.780Z,1.30
2018-08-24T09:50:14.647Z,0.50
2018-08-24T09:52:47.309Z,0.67
2018-08-24T09:55:15.710Z,0.93
2018-08-24T09:57:44.084Z,0.73
2018-08-24T10:00:12.478Z,0.60
2018-08-24T10:02:43.520Z,0.30
2018-08-24T10:05:17.510Z,0.97
2018-08-24T10:07:57.807Z,0.40
2018-08-24T10:10:26.235Z,0.30
2018-08-24T10:12:54.741Z,0.40
2018-08-24T10:15:23.223Z,0.27
2018-08-24T10:17:51.613Z,0.77
2018-08-24T10:20:19.974Z,0.70
2018-08-24T10:22:48.379Z,0.53
2018-08-24T10:25:17.049Z,0.27
2018-08-24T10:27:45.994Z,0.30
2018-08-24T10:30:14.513Z,0.40
2018-08-24T10:32:43.018Z,0.70
2018-08-24T10:35:11.461Z,0.40
2018-08-24T10:37:39.828Z,0.57
2018-08-24T10:40:08.228Z,0.30
2018-08-24T10:42:36.643Z,0.30
2018-08-24T10:45:05.382Z,0.30
2018-08-24T10:47:33.788Z,0.40
2018-08-24T10:50:02.282Z,0.70
2018-08-24T10:52:30.788Z,0.60
2018-08-24T10:54:59.464Z,0.50
2018-08-24T10:57:27.908Z,0.43
2018-08-24T10:59:57.028Z,0.10
2018-08-24T11:02:25.634Z,0.20
2018-08-24T11:04:54.093Z,0.60
2018-08-24T11:07:22.642Z,0.37
2018-08-24T11:09:50.988Z,0.30
2018-08-24T11:12:19.416Z,1.03
2018-08-24T11:14:47.817Z,0.20
2018-08-24T11:17:16.371Z,0.40
2018-08-24T11:19:44.849Z,0.53
2018-08-24T11:22:13.413Z,0.30
2018-08-24T11:24:41.857Z,0.40
2018-08-24T11:27:10.431Z,0.20
2018-08-24T11:29:39.708Z,0.40
2018-08-24T11:32:08.078Z,0.60
2018-08-24T11:34:36.573Z,0.47
2018-08-24T11:37:05.095Z,0.30
2018-08-24T11:39:33.630Z,0.20
2018-08-24T11:42:02.818Z,0.50
2018-08-24T11:44:31.224Z,0.40
2018-08-24T11:46:59.643Z,0.60
2018-08-24T11:49:28.080Z,0.33
2018-08-24T11:51:56.514Z,0.93
2018-08-24T11:54:24.962Z,0.37
2018-08-24T11:56:53.432Z,0.60
2018-08-24T11:59:21.971Z,0.30
2018-08-24T12:01:50.363Z,0.60
2018-08-24T12:04:18.800Z,0.53
2018-08-24T12:06:47.296Z,0.40
2018-08-24T12:09:15.670Z,0.20
2018-08-24T12:11:44.044Z,0.47
2018-08-24T12:14:12.452Z,0.50
2018-08-24T12:16:40.829Z,0.37
2018-08-24T12:19:09.454Z,0.33
2018-08-24T12:21:38.132Z,0.30
2018-08-24T12:24:06.565Z,0.30
2018-08-24T12:26:34.945Z,0.40
2018-08-24T12:29:05.647Z,0.37
2018-08-24T12:31:34.551Z,0.63
2018-08-24T12:34:03.199Z,0.20
2018-08-24T12:36:31.806Z,0.20
2018-08-24T12:39:00.253Z,0.30
2018-08-24T12:41:28.717Z,0.10
2018-08-24T12:43:57.265Z,0.60
2018-08-24T12:46:25.687Z,0.23
2018-08-24T12:48:54.093Z,0.30
2018-08-24T12:51:22.635Z,0.20
2018-08-24T12:53:51.622Z,0.20
2018-08-24T12:56:21.622Z,0.40
2018-08-24T12:58:51.819Z,0.20
2018-08-24T13:01:20.940Z,0.20
2018-08-24T13:03:50.033Z,0.40
2018-08-24T13:06:18.792Z,0.30
2018-08-24T13:08:47.522Z,0.30
2018-08-24T13:11:16.206Z,0.40
2018-08-24T13:13:44.778Z,0.27
2018-08-24T13:16:13.458Z,0.40
2018-08-24T13:18:43.238Z,0.30
2018-08-24T13:21:12.388Z,0.33
2018-08-24T13:23:40.996Z,0.37
2018-08-24T13:26:09.476Z,0.30
2018-08-24T13:28:38.316Z,0.30
2018-08-24T13:31:07.310Z,0.30
2018-08-24T13:33:35.962Z,0.30
2018-08-24T13:36:04.346Z,0.30
2018-08-24T13:38:32.810Z,0.40
2018-08-24T13:41:01.570Z,0.40
2018-08-24T13:43:29.935Z,0.43
2018-08-24T13:45:58.595Z,0.30
2018-08-24T13:48:27.056Z,0.47
2018-08-24T13:50:55.716Z,0.40
2018-08-24T13:53:24.143Z,0.30
2018-08-24T13:55:52.557Z,0.50
2018-08-24T13:58:21.185Z,0.63
2018-08-24T14:00:49.688Z,0.50
2018-08-24T14:03:18.037Z,0.40
2018-08-24T14:05:46.613Z,0.40
2018-08-24T14:08:15.039Z,0.37
2018-08-24T14:10:44.204Z,0.50
2018-08-24T14:13:12.769Z,0.50
2018-08-24T14:15:40.988Z,0.30
2018-08-24T14:18:09.474Z,0.47
2018-08-24T14:20:37.869Z,0.30
2018-08-24T14:23:06.275Z,0.60
2018-08-24T14:25:34.716Z,0.63
2018-08-24T14:28:03.809Z,0.20
2018-08-24T14:30:32.142Z,0.40
2018-08-24T14:33:00.585Z,0.30
2018-08-24T14:35:28.978Z,0.30
2018-08-24T14:37:57.392Z,0.30
2018-08-24T14:40:25.831Z,0.20
2018-08-24T14:42:54.237Z,0.27
2018-08-24T14:45:22.655Z,0.30
2018-08-24T14:47:51.096Z,0.30
2018-08-24T14:50:19.476Z,0.40
2018-08-24T14:52:47.798Z,0.30
2018-08-24T14:55:16.483Z,0.50
2018-08-24T14:57:44.885Z,0.57
2018-08-24T15:00:13.411Z,0.50
2018-08-24T15:02:41.846Z,0.40
2018-08-24T15:05:11.739Z,0.40
2018-08-24T15:07:40.246Z,0.20
2018-08-24T15:10:09.462Z,0.40
2018-08-24T15:12:38.193Z,0.20
2018-08-24T15:15:06.919Z,0.30
2018-08-24T15:17:35.409Z,0.30
2018-08-24T15:20:04.252Z,0.40
2018-08-24T15:22:33.153Z,0.37
2018-08-24T15:25:01.516Z,0.30
2018-08-24T15:27:30.254Z,0.40
2018-08-24T15:29:58.959Z,0.53
2018-08-24T15:32:27.303Z,0.80
2018-08-24T15:34:55.791Z,0.30
2018-08-24T15:37:24.101Z,0.80
2018-08-24T15:39:52.471Z,0.20
2018-08-24T15:42:21.436Z,0.40
2018-08-24T15:44:49.832Z,0.67
2018-08-24T15:47:18.210Z,0.20
2018-08-24T15:49:46.619Z,0.50
2018-08-24T15:52:14.960Z,0.60
2018-08-24T15:54:43.472Z,0.30
2018-08-24T15:57:11.767Z,0.40
2018-08-24T15:59:40.146Z,0.30
2018-08-24T16:02:08.700Z,0.90
2018-08-24T16:04:37.140Z,0.30
2018-08-24T16:07:05.597Z,0.30
2018-08-24T16:09:34.054Z,0.30
2018-08-24T16:12:02.833Z,0.30
2018-08-24T16:14:31.355Z,0.40
2018-08-24T16:16:59.829Z,0.30
2018-08-24T16:19:28.479Z,0.20
2018-08-24T16:21:57.133Z,0.20
2018-08-24T16:24:26.549Z,0.40
2018-08-24T16:26:54.988Z,0.40
2018-08-24T16:29:26.090Z,0.40
2018-08-24T16:31:54.492Z,0.43
2018-08-24T16:34:22.825Z,0.20
2018-08-24T16:36:51.324Z,0.53
2018-08-24T16:39:19.737Z,0.23
2018-08-24T16:41:48.148Z,0.27
2018-08-24T16:44:16.570Z,0.40
2018-08-24T16:46:44.995Z,0.20
2018-08-24T16:49:13.533Z,0.27
2018-08-24T16:51:42.100Z,0.50
2018-08-24T16:54:10.554Z,0.40
2018-08-24T16:56:38.872Z,0.47
2018-08-24T16:59:07.164Z,0.60
2018-08-24T17:01:44.965Z,0.53
2018-08-24T17:07:43.644Z,0.50
2018-08-24T17:10:12.121Z,0.30
2018-08-24T17:12:40.575Z,0.43
2018-08-24T17:15:08.972Z,0.23
2018-08-24T17:17:37.341Z,0.40
2018-08-24T17:20:05.848Z,0.30
2018-08-24T17:22:34.292Z,0.40
2018-08-24T17:25:02.751Z,0.43
2018-08-24T17:27:31.352Z,0.20
2018-08-24T17:29:59.834Z,0.43
2018-08-24T17:32:28.197Z,0.50
2018-08-24T17:34:56.562Z,0.20
2018-08-24T17:37:25.006Z,0.33
2018-08-24T17:39:53.347Z,0.40
2018-08-24T17:42:21.682Z,0.20
2018-08-24T17:44:50.113Z,0.50
2018-08-24T17:47:18.700Z,0.20
2018-08-24T17:49:47.268Z,0.47
2018-08-24T17:52:15.873Z,0.60
2018-08-24T17:54:44.254Z,0.40
2018-08-24T17:57:12.627Z,0.37
2018-08-24T17:59:41.028Z,0.50
2018-08-24T18:02:09.388Z,0.30
2018-08-24T18:04:38.011Z,0.43
2018-08-24T18:07:06.331Z,0.40
2018-08-24T18:09:34.877Z,0.63
2018-08-24T18:12:03.243Z,0.47
2018-08-24T18:14:31.654Z,0.30
2018-08-24T18:17:00.149Z,0.50
2018-08-24T18:19:28.557Z,0.50
2018-08-24T18:21:57.010Z,0.50
2018-08-24T18:24:25.565Z,0.47
2018-08-24T18:26:53.817Z,0.43
2018-08-24T18:29:22.353Z,0.37
2018-08-24T18:31:50.828Z,0.50
2018-08-24T18:34:19.315Z,0.60
2018-08-24T18:36:48.422Z,0.30
2018-08-24T18:39:19.321Z,0.57
2018-08-24T18:41:47.856Z,0.40
2018-08-24T18:44:16.309Z,0.60
2018-08-24T18:46:44.769Z,0.90
2018-08-24T18:49:13.170Z,0.40
2018-08-24T18:51:41.544Z,0.60
2018-08-24T18:54:09.986Z,0.40
2018-08-24T18:56:38.567Z,0.40
2018-08-24T18:59:07.042Z,0.50
2018-08-24T19:01:35.527Z,0.30
2018-08-24T19:04:03.951Z,0.50
2018-08-24T19:06:32.304Z,0.50
2018-08-24T19:09:00.802Z,0.33
2018-08-24T19:11:34.508Z,0.50
2018-08-24T19:14:03.115Z,0.40
2018-08-24T19:16:31.463Z,0.53
2018-08-24T19:19:05.297Z,0.50
2018-08-24T19:21:39.003Z,0.50
2018-08-24T19:24:07.561Z,0.40
2018-08-24T19:26:36.037Z,0.30
2018-08-24T19:29:09.972Z,0.50
2018-08-24T19:31:38.562Z,0.40
2018-08-24T19:34:07.157Z,0.47
2018-08-24T19:36:36.104Z,0.50
2018-08-24T19:39:07.883Z,0.43
2018-08-24T19:41:41.436Z,0.50
2018-08-24T19:44:09.821Z,0.30
2018-08-24T19:46:38.229Z,0.40
2018-08-24T19:49:12.150Z,0.53
2018-08-24T19:51:40.812Z,0.50
2018-08-24T19:54:09.295Z,0.50
2018-08-24T19:56:37.864Z,0.30
2018-08-24T19:59:08.042Z,0.47
2018-08-24T20:01:36.432Z,0.30
2018-08-24T20:04:05.761Z,0.40
2018-08-24T20:06:39.721Z,0.40
2018-08-24T20:09:16.324Z,0.30
2018-08-24T20:11:50.971Z,0.40
2018-08-24T20:14:24.763Z,0.40
2018-08-24T20:16:58.625Z,0.60
2018-08-24T20:19:27.880Z,0.43
2018-08-24T20:21:56.370Z,0.50
2018-08-24T20:24:24.949Z,0.47
2018-08-24T20:26:53.286Z,0.73
2018-08-24T20:29:21.674Z,0.40
2018-08-24T20:31:50.180Z,0.40
2018-08-24T20:34:18.690Z,0.83
2018-08-24T20:36:47.203Z,0.40
2018-08-24T20:39:15.740Z,0.40
2018-08-24T20:41:44.160Z,0.40
2018-08-24T20:44:14.155Z,0.30
2018-08-24T20:46:42.511Z,0.40
2018-08-24T20:49:10.912Z,0.50
2018-08-24T20:51:39.360Z,0.50
2018-08-24T20:54:07.868Z,0.33
2018-08-24T20:56:36.345Z,0.50
2018-08-24T20:59:05.453Z,0.30
2018-08-24T21:01:33.881Z,0.57
2018-08-24T21:04:03.209Z,0.40
2018-08-24T21:06:31.991Z,0.30
2018-08-24T21:09:00.342Z,0.50
2018-08-24T21:11:28.708Z,0.60
2018-08-24T21:13:57.090Z,0.50
2018-08-24T21:16:25.992Z,0.40
2018-08-24T21:18:55.526Z,0.30
2018-08-24T21:21:23.964Z,0.60
2018-08-24T21:23:52.374Z,0.60
2018-08-24T21:26:20.744Z,0.30
2018-08-24T21:28:49.112Z,0.70
2018-08-24T21:31:17.667Z,0.60
2018-08-24T21:33:46.154Z,0.40
2018-08-24T21:36:14.493Z,0.50
2018-08-24T21:38:43.527Z,0.50
2018-08-24T21:41:11.972Z,0.33
2018-08-24T21:43:40.875Z,0.50
2018-08-24T21:46:09.636Z,0.37
2018-08-24T21:48:38.075Z,0.20
2018-08-24T21:51:06.421Z,0.50
2018-08-24T21:53:34.763Z,0.20
2018-08-24T21:56:03.117Z,0.20
2018-08-24T21:58:31.513Z,0.47
2018-08-24T22:00:59.828Z,0.23
2018-08-24T22:03:28.166Z,0.53
2018-08-24T22:05:56.502Z,0.53
2018-08-24T22:08:24.859Z,0.20
2018-08-24T22:10:53.342Z,0.27
2018-08-24T22:13:21.680Z,0.40
2018-08-24T22:15:50.001Z,0.30
2018-08-24T22:18:18.460Z,0.60
2018-08-24T22:20:46.816Z,0.40
2018-08-24T22:23:15.895Z,1.00
2018-08-24T22:25:44.305Z,0.50
2018-08-24T22:28:14.429Z,0.90
2018-08-24T22:30:43.004Z,0.60
2018-08-24T22:33:11.739Z,0.67
2018-08-24T22:35:40.167Z,0.80
2018-08-24T22:38:08.699Z,0.73
2018-08-24T22:40:37.129Z,0.60
2018-08-24T22:43:09.729Z,0.40
2018-08-24T22:45:38.079Z,0.50
2018-08-24T22:48:06.407Z,0.73
2018-08-24T22:50:34.783Z,0.47
2018-08-24T22:53:03.221Z,0.50
2018-08-24T22:55:31.585Z,0.37
2018-08-24T22:57:59.936Z,0.30
2018-08-24T23:00:28.335Z,0.33
2018-08-24T23:02:57.687Z,0.30
2018-08-24T23:05:26.070Z,0.37
2018-08-24T23:08:00.952Z,0.30
2018-08-24T23:10:29.342Z,0.30
2018-08-24T23:12:57.816Z,0.60
2018-08-24T23:15:26.271Z,0.30
2018-08-24T23:17:54.694Z,0.90
2018-08-24T23:20:23.078Z,0.40
2018-08-24T23:22:51.698Z,0.30
2018-08-24T23:25:20.088Z,0.40
2018-08-24T23:27:48.448Z,0.40
2018-08-24T23:30:16.856Z,0.30
2018-08-24T23:32:45.168Z,0.50
2018-08-24T23:35:13.674Z,0.40
2018-08-24T23:37:42.089Z,0.30
2018-08-24T23:40:10.437Z,0.50
2018-08-24T23:42:38.831Z,0.40
2018-08-24T23:45:07.209Z,0.60
2018-08-24T23:47:35.588Z,0.50
2018-08-24T23:50:04.120Z,0.30
2018-08-24T23:52:32.456Z,0.60
2018-08-24T23:55:01.483Z,0.40
2018-08-24T23:57:29.895Z,0.37
2018-08-24T23:59:58.252Z,0.40
